sensor_id;sensor_type;location;lat;lon;timestamp;P1;durP1;ratioP1;P2;durP2;ratioP2
26742;SDS011;14341;51.256;22.478;2023-05-16T00:00:02;45.45;;;26.95;;
26742;SDS011;14341;51.256;22.478;2023-05-16T00:03:09;42.33;;;26.42;;
26742;SDS011;14341;51.256;22.478;2023-05-16T00:06:13;43.38;;;26.02;;
26742;SDS011;14341;51.256;22.478;2023-05-16T00:09:18;44.92;;;26.98;;
26742;SDS011;14341;51.256;22.478;2023-05-16T00:12:22;39.60;;;26.67;;
26742;SDS011;14341;51.256;22.478;2023-05-16T00:15:25;44.88;;;28.35;;
26742;SDS011;14341;51.256;22.478;2023-05-16T00:18:29;45.63;;;27.80;;
26742;SDS011;14341;51.256;22.478;2023-05-16T00:21:33;46.45;;;27.30;;
26742;SDS011;14341;51.256;22.478;2023-05-16T00:24:38;47.05;;;28.27;;
26742;SDS011;14341;51.256;22.478;2023-05-16T00:27:41;43.28;;;27.25;;
26742;SDS011;14341;51.256;22.478;2023-05-16T00:30:44;45.38;;;27.45;;
26742;SDS011;14341;51.256;22.478;2023-05-16T00:33:49;45.65;;;28.58;;
26742;SDS011;14341;51.256;22.478;2023-05-16T00:36:52;49.05;;;28.83;;
26742;SDS011;14341;51.256;22.478;2023-05-16T00:39:59;47.50;;;28.38;;
26742;SDS011;14341;51.256;22.478;2023-05-16T00:43:03;41.42;;;28.25;;
26742;SDS011;14341;51.256;22.478;2023-05-16T00:46:06;48.35;;;29.05;;
26742;SDS011;14341;51.256;22.478;2023-05-16T00:49:09;45.63;;;28.15;;
26742;SDS011;14341;51.256;22.478;2023-05-16T00:52:13;48.13;;;28.27;;
26742;SDS011;14341;51.256;22.478;2023-05-16T00:55:18;42.72;;;26.98;;
26742;SDS011;14341;51.256;22.478;2023-05-16T00:58:21;37.83;;;25.42;;
26742;SDS011;14341;51.256;22.478;2023-05-16T01:01:26;45.33;;;27.70;;
26742;SDS011;14341;51.256;22.478;2023-05-16T01:04:31;45.88;;;27.48;;
26742;SDS011;14341;51.256;22.478;2023-05-16T01:07:34;40.20;;;26.33;;
26742;SDS011;14341;51.256;22.478;2023-05-16T01:10:43;45.35;;;27.30;;
26742;SDS011;14341;51.256;22.478;2023-05-16T01:17:04;33.10;;;21.37;;
26742;SDS011;14341;51.256;22.478;2023-05-16T01:20:13;44.55;;;27.15;;
26742;SDS011;14341;51.256;22.478;2023-05-16T01:23:27;41.40;;;25.33;;
26742;SDS011;14341;51.256;22.478;2023-05-16T01:26:44;43.53;;;26.52;;
26742;SDS011;14341;51.256;22.478;2023-05-16T01:29:48;43.17;;;27.33;;
26742;SDS011;14341;51.256;22.478;2023-05-16T01:32:56;50.55;;;28.30;;
26742;SDS011;14341;51.256;22.478;2023-05-16T01:36:01;45.40;;;27.73;;
26742;SDS011;14341;51.256;22.478;2023-05-16T01:39:16;45.83;;;27.40;;
26742;SDS011;14341;51.256;22.478;2023-05-16T01:42:26;44.28;;;27.02;;
26742;SDS011;14341;51.256;22.478;2023-05-16T01:48:43;41.85;;;25.83;;
26742;SDS011;14341;51.256;22.478;2023-05-16T01:51:53;41.65;;;26.42;;
26742;SDS011;14341;51.256;22.478;2023-05-16T01:55:01;49.40;;;29.55;;
26742;SDS011;14341;51.256;22.478;2023-05-16T01:58:07;42.78;;;27.35;;
26742;SDS011;14341;51.256;22.478;2023-05-16T02:01:12;47.92;;;28.92;;
26742;SDS011;14341;51.256;22.478;2023-05-16T02:04:16;50.75;;;28.35;;
26742;SDS011;14341;51.256;22.478;2023-05-16T02:07:19;42.53;;;28.65;;
26742;SDS011;14341;51.256;22.478;2023-05-16T02:10:23;48.17;;;29.92;;
26742;SDS011;14341;51.256;22.478;2023-05-16T02:13:28;57.22;;;32.88;;
26742;SDS011;14341;51.256;22.478;2023-05-16T02:16:36;54.63;;;31.97;;
26742;SDS011;14341;51.256;22.478;2023-05-16T02:19:44;53.17;;;31.92;;
26742;SDS011;14341;51.256;22.478;2023-05-16T02:22:47;48.47;;;30.27;;
26742;SDS011;14341;51.256;22.478;2023-05-16T02:25:53;45.90;;;29.73;;
26742;SDS011;14341;51.256;22.478;2023-05-16T02:28:58;45.95;;;28.55;;
26742;SDS011;14341;51.256;22.478;2023-05-16T02:32:01;52.25;;;28.88;;
26742;SDS011;14341;51.256;22.478;2023-05-16T02:35:10;51.97;;;30.88;;
26742;SDS011;14341;51.256;22.478;2023-05-16T02:38:13;46.92;;;29.33;;
26742;SDS011;14341;51.256;22.478;2023-05-16T02:41:18;45.65;;;29.13;;
26742;SDS011;14341;51.256;22.478;2023-05-16T02:44:23;53.22;;;30.60;;
26742;SDS011;14341;51.256;22.478;2023-05-16T02:47:27;45.33;;;29.85;;
26742;SDS011;14341;51.256;22.478;2023-05-16T02:50:30;45.15;;;29.55;;
26742;SDS011;14341;51.256;22.478;2023-05-16T02:53:34;50.03;;;28.85;;
26742;SDS011;14341;51.256;22.478;2023-05-16T02:56:37;51.92;;;29.27;;
26742;SDS011;14341;51.256;22.478;2023-05-16T02:59:42;47.40;;;29.42;;
26742;SDS011;14341;51.256;22.478;2023-05-16T03:02:45;45.58;;;28.08;;
26742;SDS011;14341;51.256;22.478;2023-05-16T03:05:49;50.05;;;27.35;;
26742;SDS011;14341;51.256;22.478;2023-05-16T03:08:52;42.85;;;27.88;;
26742;SDS011;14341;51.256;22.478;2023-05-16T03:11:56;43.55;;;27.48;;
26742;SDS011;14341;51.256;22.478;2023-05-16T03:15:01;48.78;;;29.13;;
26742;SDS011;14341;51.256;22.478;2023-05-16T03:18:04;46.15;;;29.17;;
26742;SDS011;14341;51.256;22.478;2023-05-16T03:21:08;48.47;;;30.23;;
26742;SDS011;14341;51.256;22.478;2023-05-16T03:24:11;43.63;;;29.33;;
26742;SDS011;14341;51.256;22.478;2023-05-16T03:27:17;48.28;;;30.33;;
26742;SDS011;14341;51.256;22.478;2023-05-16T03:30:21;50.22;;;30.23;;
26742;SDS011;14341;51.256;22.478;2023-05-16T03:33:25;45.22;;;28.73;;
26742;SDS011;14341;51.256;22.478;2023-05-16T03:36:28;50.97;;;29.95;;
26742;SDS011;14341;51.256;22.478;2023-05-16T03:39:31;52.10;;;30.83;;
26742;SDS011;14341;51.256;22.478;2023-05-16T03:42:35;51.15;;;31.75;;
26742;SDS011;14341;51.256;22.478;2023-05-16T03:45:39;53.35;;;33.05;;
26742;SDS011;14341;51.256;22.478;2023-05-16T03:48:43;58.60;;;33.13;;
26742;SDS011;14341;51.256;22.478;2023-05-16T03:51:46;52.55;;;32.22;;
26742;SDS011;14341;51.256;22.478;2023-05-16T03:54:50;51.72;;;32.88;;
26742;SDS011;14341;51.256;22.478;2023-05-16T03:57:53;55.45;;;33.45;;
26742;SDS011;14341;51.256;22.478;2023-05-16T04:00:57;54.85;;;34.13;;
26742;SDS011;14341;51.256;22.478;2023-05-16T04:04:01;55.83;;;34.13;;
26742;SDS011;14341;51.256;22.478;2023-05-16T04:07:04;55.42;;;34.03;;
26742;SDS011;14341;51.256;22.478;2023-05-16T04:10:08;56.88;;;32.55;;
26742;SDS011;14341;51.256;22.478;2023-05-16T04:13:12;51.40;;;33.17;;
26742;SDS011;14341;51.256;22.478;2023-05-16T04:16:18;56.63;;;34.90;;
26742;SDS011;14341;51.256;22.478;2023-05-16T04:19:21;55.45;;;33.67;;
26742;SDS011;14341;51.256;22.478;2023-05-16T04:22:25;57.65;;;33.20;;
26742;SDS011;14341;51.256;22.478;2023-05-16T04:25:28;55.20;;;33.17;;
26742;SDS011;14341;51.256;22.478;2023-05-16T04:28:32;53.97;;;33.30;;
26742;SDS011;14341;51.256;22.478;2023-05-16T04:31:37;53.78;;;32.60;;
26742;SDS011;14341;51.256;22.478;2023-05-16T04:34:40;51.90;;;32.63;;
26742;SDS011;14341;51.256;22.478;2023-05-16T04:37:44;52.97;;;33.70;;
26742;SDS011;14341;51.256;22.478;2023-05-16T04:40:47;50.65;;;33.42;;
26742;SDS011;14341;51.256;22.478;2023-05-16T04:43:52;66.47;;;44.20;;
26742;SDS011;14341;51.256;22.478;2023-05-16T04:46:57;52.72;;;33.33;;
26742;SDS011;14341;51.256;22.478;2023-05-16T04:50:00;54.03;;;34.10;;
26742;SDS011;14341;51.256;22.478;2023-05-16T04:53:03;51.78;;;34.10;;
26742;SDS011;14341;51.256;22.478;2023-05-16T04:56:07;52.38;;;34.08;;
26742;SDS011;14341;51.256;22.478;2023-05-16T04:59:10;61.60;;;38.28;;
26742;SDS011;14341;51.256;22.478;2023-05-16T05:02:15;49.78;;;32.53;;
26742;SDS011;14341;51.256;22.478;2023-05-16T05:05:18;48.53;;;32.47;;
26742;SDS011;14341;51.256;22.478;2023-05-16T05:08:21;48.05;;;31.33;;
26742;SDS011;14341;51.256;22.478;2023-05-16T05:11:24;44.95;;;30.85;;
26742;SDS011;14341;51.256;22.478;2023-05-16T05:14:28;39.65;;;29.05;;
26742;SDS011;14341;51.256;22.478;2023-05-16T05:17:33;44.33;;;29.30;;
26742;SDS011;14341;51.256;22.478;2023-05-16T05:20:38;42.85;;;29.25;;
26742;SDS011;14341;51.256;22.478;2023-05-16T05:23:41;38.83;;;26.35;;
26742;SDS011;14341;51.256;22.478;2023-05-16T05:26:44;37.97;;;26.23;;
26742;SDS011;14341;51.256;22.478;2023-05-16T05:29:48;35.22;;;24.02;;
26742;SDS011;14341;51.256;22.478;2023-05-16T05:32:52;29.23;;;22.20;;
26742;SDS011;14341;51.256;22.478;2023-05-16T05:35:57;42.47;;;32.25;;
26742;SDS011;14341;51.256;22.478;2023-05-16T05:39:04;37.50;;;27.10;;
26742;SDS011;14341;51.256;22.478;2023-05-16T05:42:07;28.20;;;20.38;;
26742;SDS011;14341;51.256;22.478;2023-05-16T05:45:12;22.55;;;18.27;;
26742;SDS011;14341;51.256;22.478;2023-05-16T05:48:18;35.30;;;29.08;;
26742;SDS011;14341;51.256;22.478;2023-05-16T05:51:21;20.17;;;17.38;;
26742;SDS011;14341;51.256;22.478;2023-05-16T05:54:24;19.83;;;15.95;;
26742;SDS011;14341;51.256;22.478;2023-05-16T05:57:28;21.13;;;17.98;;
26742;SDS011;14341;51.256;22.478;2023-05-16T06:00:31;18.23;;;15.10;;
26742;SDS011;14341;51.256;22.478;2023-05-16T06:03:36;17.33;;;15.20;;
26742;SDS011;14341;51.256;22.478;2023-05-16T06:06:39;19.83;;;14.38;;
26742;SDS011;14341;51.256;22.478;2023-05-16T06:09:42;14.27;;;12.27;;
26742;SDS011;14341;51.256;22.478;2023-05-16T06:12:45;16.77;;;12.82;;
26742;SDS011;14341;51.256;22.478;2023-05-16T06:15:49;17.45;;;12.75;;
26742;SDS011;14341;51.256;22.478;2023-05-16T06:18:54;14.55;;;12.43;;
26742;SDS011;14341;51.256;22.478;2023-05-16T06:21:57;13.55;;;12.15;;
26742;SDS011;14341;51.256;22.478;2023-05-16T06:25:00;12.93;;;11.63;;
26742;SDS011;14341;51.256;22.478;2023-05-16T06:28:04;16.73;;;10.88;;
26742;SDS011;14341;51.256;22.478;2023-05-16T06:31:07;15.57;;;12.00;;
26742;SDS011;14341;51.256;22.478;2023-05-16T06:34:12;12.45;;;11.07;;
26742;SDS011;14341;51.256;22.478;2023-05-16T06:37:15;15.23;;;10.45;;
26742;SDS011;14341;51.256;22.478;2023-05-16T06:40:18;18.85;;;12.80;;
26742;SDS011;14341;51.256;22.478;2023-05-16T06:43:21;22.23;;;16.95;;
26742;SDS011;14341;51.256;22.478;2023-05-16T06:46:25;15.05;;;9.85;;
26742;SDS011;14341;51.256;22.478;2023-05-16T06:49:30;12.25;;;10.38;;
26742;SDS011;14341;51.256;22.478;2023-05-16T06:52:33;16.67;;;9.23;;
26742;SDS011;14341;51.256;22.478;2023-05-16T06:55:36;11.25;;;9.25;;
26742;SDS011;14341;51.256;22.478;2023-05-16T06:58:39;12.75;;;8.35;;
26742;SDS011;14341;51.256;22.478;2023-05-16T07:01:43;11.90;;;8.30;;
26742;SDS011;14341;51.256;22.478;2023-05-16T07:04:48;8.70;;;7.80;;
26742;SDS011;14341;51.256;22.478;2023-05-16T07:07:51;9.38;;;8.05;;
26742;SDS011;14341;51.256;22.478;2023-05-16T07:10:54;12.25;;;7.78;;
26742;SDS011;14341;51.256;22.478;2023-05-16T07:13:58;10.55;;;8.18;;
26742;SDS011;14341;51.256;22.478;2023-05-16T07:17:01;9.13;;;7.75;;
26742;SDS011;14341;51.256;22.478;2023-05-16T07:20:08;11.48;;;7.55;;
26742;SDS011;14341;51.256;22.478;2023-05-16T07:23:14;9.60;;;8.43;;
26742;SDS011;14341;51.256;22.478;2023-05-16T07:26:17;12.93;;;8.35;;
26742;SDS011;14341;51.256;22.478;2023-05-16T07:29:23;9.07;;;8.13;;
26742;SDS011;14341;51.256;22.478;2023-05-16T07:32:27;10.52;;;9.23;;
26742;SDS011;14341;51.256;22.478;2023-05-16T07:35:31;11.88;;;8.13;;
26742;SDS011;14341;51.256;22.478;2023-05-16T07:38:34;9.05;;;7.78;;
26742;SDS011;14341;51.256;22.478;2023-05-16T07:41:38;12.55;;;8.20;;
26742;SDS011;14341;51.256;22.478;2023-05-16T07:44:41;9.10;;;7.63;;
26742;SDS011;14341;51.256;22.478;2023-05-16T07:47:45;8.88;;;7.45;;
26742;SDS011;14341;51.256;22.478;2023-05-16T07:50:50;10.40;;;7.28;;
26742;SDS011;14341;51.256;22.478;2023-05-16T07:53:56;19.77;;;15.50;;
26742;SDS011;14341;51.256;22.478;2023-05-16T07:56:59;10.18;;;7.55;;
26742;SDS011;14341;51.256;22.478;2023-05-16T08:00:03;9.38;;;7.30;;
26742;SDS011;14341;51.256;22.478;2023-05-16T08:03:12;9.73;;;6.55;;
26742;SDS011;14341;51.256;22.478;2023-05-16T08:06:16;10.00;;;6.50;;
26742;SDS011;14341;51.256;22.478;2023-05-16T08:09:20;13.52;;;9.63;;
26742;SDS011;14341;51.256;22.478;2023-05-16T08:12:23;7.93;;;6.68;;
26742;SDS011;14341;51.256;22.478;2023-05-16T08:15:27;8.23;;;6.65;;
26742;SDS011;14341;51.256;22.478;2023-05-16T08:18:33;7.57;;;6.47;;
26742;SDS011;14341;51.256;22.478;2023-05-16T08:21:38;7.25;;;6.53;;
26742;SDS011;14341;51.256;22.478;2023-05-16T08:24:42;14.70;;;8.95;;
26742;SDS011;14341;51.256;22.478;2023-05-16T08:27:45;7.93;;;6.35;;
26742;SDS011;14341;51.256;22.478;2023-05-16T08:30:51;9.27;;;6.45;;
26742;SDS011;14341;51.256;22.478;2023-05-16T08:33:54;8.05;;;6.35;;
26742;SDS011;14341;51.256;22.478;2023-05-16T08:36:59;10.93;;;6.43;;
26742;SDS011;14341;51.256;22.478;2023-05-16T08:40:03;7.53;;;6.32;;
26742;SDS011;14341;51.256;22.478;2023-05-16T08:43:08;12.88;;;6.22;;
26742;SDS011;14341;51.256;22.478;2023-05-16T08:46:12;11.45;;;6.00;;
26742;SDS011;14341;51.256;22.478;2023-05-16T08:49:16;8.23;;;6.47;;
26742;SDS011;14341;51.256;22.478;2023-05-16T08:52:24;7.70;;;6.65;;
26742;SDS011;14341;51.256;22.478;2023-05-16T08:55:30;7.63;;;6.55;;
26742;SDS011;14341;51.256;22.478;2023-05-16T08:58:34;13.20;;;6.00;;
26742;SDS011;14341;51.256;22.478;2023-05-16T09:01:38;9.68;;;6.72;;
26742;SDS011;14341;51.256;22.478;2023-05-16T09:04:42;9.77;;;7.50;;
26742;SDS011;14341;51.256;22.478;2023-05-16T09:07:49;10.35;;;6.63;;
26742;SDS011;14341;51.256;22.478;2023-05-16T09:10:52;8.63;;;6.55;;
26742;SDS011;14341;51.256;22.478;2023-05-16T09:13:56;7.30;;;6.20;;
26742;SDS011;14341;51.256;22.478;2023-05-16T09:17:02;6.57;;;5.97;;
26742;SDS011;14341;51.256;22.478;2023-05-16T09:20:07;7.75;;;6.25;;
26742;SDS011;14341;51.256;22.478;2023-05-16T09:23:14;6.50;;;5.78;;
26742;SDS011;14341;51.256;22.478;2023-05-16T09:26:25;8.00;;;6.25;;
26742;SDS011;14341;51.256;22.478;2023-05-16T09:29:28;6.97;;;6.28;;
26742;SDS011;14341;51.256;22.478;2023-05-16T09:32:32;9.52;;;6.72;;
26742;SDS011;14341;51.256;22.478;2023-05-16T09:35:35;10.32;;;6.63;;
26742;SDS011;14341;51.256;22.478;2023-05-16T09:38:43;7.15;;;6.07;;
26742;SDS011;14341;51.256;22.478;2023-05-16T09:41:47;6.97;;;5.95;;
26742;SDS011;14341;51.256;22.478;2023-05-16T09:44:53;6.63;;;5.88;;
26742;SDS011;14341;51.256;22.478;2023-05-16T09:48:00;7.93;;;6.45;;
26742;SDS011;14341;51.256;22.478;2023-05-16T09:51:05;8.30;;;6.07;;
26742;SDS011;14341;51.256;22.478;2023-05-16T09:54:11;7.80;;;6.22;;
26742;SDS011;14341;51.256;22.478;2023-05-16T09:57:16;17.60;;;6.20;;
26742;SDS011;14341;51.256;22.478;2023-05-16T10:00:20;12.18;;;7.03;;
26742;SDS011;14341;51.256;22.478;2023-05-16T10:03:24;8.93;;;6.38;;
26742;SDS011;14341;51.256;22.478;2023-05-16T10:06:28;8.95;;;6.43;;
26742;SDS011;14341;51.256;22.478;2023-05-16T10:09:33;17.70;;;12.50;;
26742;SDS011;14341;51.256;22.478;2023-05-16T10:12:36;6.65;;;5.60;;
26742;SDS011;14341;51.256;22.478;2023-05-16T10:15:40;9.90;;;5.95;;
26742;SDS011;14341;51.256;22.478;2023-05-16T10:18:44;8.13;;;6.30;;
26742;SDS011;14341;51.256;22.478;2023-05-16T10:21:50;9.18;;;6.47;;
26742;SDS011;14341;51.256;22.478;2023-05-16T10:24:57;8.15;;;6.20;;
26742;SDS011;14341;51.256;22.478;2023-05-16T10:28:06;10.45;;;7.55;;
26742;SDS011;14341;51.256;22.478;2023-05-16T10:31:10;6.68;;;5.97;;
26742;SDS011;14341;51.256;22.478;2023-05-16T10:34:13;8.80;;;6.13;;
26742;SDS011;14341;51.256;22.478;2023-05-16T10:37:18;6.38;;;5.75;;
26742;SDS011;14341;51.256;22.478;2023-05-16T10:40:22;8.13;;;5.80;;
26742;SDS011;14341;51.256;22.478;2023-05-16T10:43:26;9.45;;;5.72;;
26742;SDS011;14341;51.256;22.478;2023-05-16T10:46:31;8.90;;;5.75;;
26742;SDS011;14341;51.256;22.478;2023-05-16T10:49:35;6.20;;;5.38;;
26742;SDS011;14341;51.256;22.478;2023-05-16T10:52:42;9.30;;;5.95;;
26742;SDS011;14341;51.256;22.478;2023-05-16T10:56:11;8.32;;;5.47;;
26742;SDS011;14341;51.256;22.478;2023-05-16T10:59:23;10.13;;;5.60;;
26742;SDS011;14341;51.256;22.478;2023-05-16T11:02:29;8.85;;;5.40;;
26742;SDS011;14341;51.256;22.478;2023-05-16T11:05:35;7.38;;;5.78;;
26742;SDS011;14341;51.256;22.478;2023-05-16T11:08:50;6.95;;;5.95;;
26742;SDS011;14341;51.256;22.478;2023-05-16T11:12:08;8.68;;;5.97;;
26742;SDS011;14341;51.256;22.478;2023-05-16T11:15:18;9.45;;;5.47;;
26742;SDS011;14341;51.256;22.478;2023-05-16T11:18:22;10.40;;;5.63;;
26742;SDS011;14341;51.256;22.478;2023-05-16T11:25:03;6.72;;;5.25;;
26742;SDS011;14341;51.256;22.478;2023-05-16T11:28:09;10.05;;;5.57;;
26742;SDS011;14341;51.256;22.478;2023-05-16T11:31:14;8.20;;;5.60;;
26742;SDS011;14341;51.256;22.478;2023-05-16T11:34:20;7.72;;;5.88;;
26742;SDS011;14341;51.256;22.478;2023-05-16T11:37:23;12.10;;;7.63;;
26742;SDS011;14341;51.256;22.478;2023-05-16T11:40:27;14.88;;;12.13;;
26742;SDS011;14341;51.256;22.478;2023-05-16T11:43:37;19.63;;;15.05;;
26742;SDS011;14341;51.256;22.478;2023-05-16T11:46:43;8.90;;;8.00;;
26742;SDS011;14341;51.256;22.478;2023-05-16T11:49:47;9.13;;;6.22;;
26742;SDS011;14341;51.256;22.478;2023-05-16T11:52:50;10.75;;;8.50;;
26742;SDS011;14341;51.256;22.478;2023-05-16T11:55:57;16.13;;;7.57;;
26742;SDS011;14341;51.256;22.478;2023-05-16T11:59:04;14.05;;;6.00;;
26742;SDS011;14341;51.256;22.478;2023-05-16T12:02:08;9.57;;;6.90;;
26742;SDS011;14341;51.256;22.478;2023-05-16T12:05:12;8.68;;;5.47;;
26742;SDS011;14341;51.256;22.478;2023-05-16T12:08:16;6.20;;;5.50;;
26742;SDS011;14341;51.256;22.478;2023-05-16T12:11:20;7.70;;;5.63;;
26742;SDS011;14341;51.256;22.478;2023-05-16T12:14:26;8.75;;;5.80;;
26742;SDS011;14341;51.256;22.478;2023-05-16T12:17:29;7.25;;;5.68;;
26742;SDS011;14341;51.256;22.478;2023-05-16T12:20:33;6.63;;;5.53;;
26742;SDS011;14341;51.256;22.478;2023-05-16T12:23:36;7.30;;;5.30;;
26742;SDS011;14341;51.256;22.478;2023-05-16T12:26:40;6.15;;;5.30;;
26742;SDS011;14341;51.256;22.478;2023-05-16T12:29:47;6.03;;;5.30;;
26742;SDS011;14341;51.256;22.478;2023-05-16T12:32:51;7.13;;;5.10;;
26742;SDS011;14341;51.256;22.478;2023-05-16T12:35:57;7.82;;;5.07;;
26742;SDS011;14341;51.256;22.478;2023-05-16T12:39:02;5.75;;;5.13;;
26742;SDS011;14341;51.256;22.478;2023-05-16T12:42:06;10.32;;;5.25;;
26742;SDS011;14341;51.256;22.478;2023-05-16T12:45:17;6.35;;;5.25;;
26742;SDS011;14341;51.256;22.478;2023-05-16T12:48:20;7.18;;;5.45;;
26742;SDS011;14341;51.256;22.478;2023-05-16T12:51:26;6.70;;;5.88;;
26742;SDS011;14341;51.256;22.478;2023-05-16T12:54:35;9.15;;;5.30;;
26742;SDS011;14341;51.256;22.478;2023-05-16T12:57:40;7.63;;;5.43;;
26742;SDS011;14341;51.256;22.478;2023-05-16T13:00:46;6.75;;;4.97;;
26742;SDS011;14341;51.256;22.478;2023-05-16T13:03:49;9.63;;;4.45;;
26742;SDS011;14341;51.256;22.478;2023-05-16T13:06:53;6.82;;;4.82;;
26742;SDS011;14341;51.256;22.478;2023-05-16T13:10:00;6.63;;;4.80;;
26742;SDS011;14341;51.256;22.478;2023-05-16T13:13:04;5.68;;;4.65;;
26742;SDS011;14341;51.256;22.478;2023-05-16T13:16:09;7.20;;;4.40;;
26742;SDS011;14341;51.256;22.478;2023-05-16T13:19:12;7.03;;;4.68;;
26742;SDS011;14341;51.256;22.478;2023-05-16T13:22:16;7.20;;;4.30;;
26742;SDS011;14341;51.256;22.478;2023-05-16T13:25:19;5.57;;;4.90;;
26742;SDS011;14341;51.256;22.478;2023-05-16T13:28:22;9.10;;;4.70;;
26742;SDS011;14341;51.256;22.478;2023-05-16T13:31:27;6.88;;;5.18;;
26742;SDS011;14341;51.256;22.478;2023-05-16T13:34:30;9.13;;;4.93;;
26742;SDS011;14341;51.256;22.478;2023-05-16T13:37:34;5.85;;;5.10;;
26742;SDS011;14341;51.256;22.478;2023-05-16T13:40:37;6.03;;;5.22;;
26742;SDS011;14341;51.256;22.478;2023-05-16T13:43:43;5.50;;;4.78;;
26742;SDS011;14341;51.256;22.478;2023-05-16T13:46:48;14.60;;;5.32;;
26742;SDS011;14341;51.256;22.478;2023-05-16T13:49:51;6.55;;;5.15;;
26742;SDS011;14341;51.256;22.478;2023-05-16T13:52:54;6.13;;;5.13;;
26742;SDS011;14341;51.256;22.478;2023-05-16T13:55:58;6.57;;;5.32;;
26742;SDS011;14341;51.256;22.478;2023-05-16T13:59:01;7.45;;;5.20;;
26742;SDS011;14341;51.256;22.478;2023-05-16T14:02:09;7.95;;;5.13;;
26742;SDS011;14341;51.256;22.478;2023-05-16T14:05:13;8.95;;;5.28;;
26742;SDS011;14341;51.256;22.478;2023-05-16T14:08:17;8.88;;;5.38;;
26742;SDS011;14341;51.256;22.478;2023-05-16T14:11:20;6.15;;;5.35;;
26742;SDS011;14341;51.256;22.478;2023-05-16T14:14:29;8.32;;;5.50;;
26742;SDS011;14341;51.256;22.478;2023-05-16T14:17:34;7.47;;;5.70;;
26742;SDS011;14341;51.256;22.478;2023-05-16T14:20:38;9.85;;;5.68;;
26742;SDS011;14341;51.256;22.478;2023-05-16T14:23:42;6.75;;;5.88;;
26742;SDS011;14341;51.256;22.478;2023-05-16T14:26:45;9.90;;;5.72;;
26742;SDS011;14341;51.256;22.478;2023-05-16T14:29:49;9.52;;;5.97;;
26742;SDS011;14341;51.256;22.478;2023-05-16T14:32:54;7.80;;;5.20;;
26742;SDS011;14341;51.256;22.478;2023-05-16T14:35:59;6.80;;;5.82;;
26742;SDS011;14341;51.256;22.478;2023-05-16T14:39:02;6.50;;;5.40;;
26742;SDS011;14341;51.256;22.478;2023-05-16T14:42:07;8.40;;;5.80;;
26742;SDS011;14341;51.256;22.478;2023-05-16T14:45:11;8.50;;;5.60;;
26742;SDS011;14341;51.256;22.478;2023-05-16T14:48:16;7.47;;;5.68;;
26742;SDS011;14341;51.256;22.478;2023-05-16T14:51:20;5.80;;;5.20;;
26742;SDS011;14341;51.256;22.478;2023-05-16T14:54:23;7.57;;;5.30;;
26742;SDS011;14341;51.256;22.478;2023-05-16T14:57:26;6.75;;;5.65;;
26742;SDS011;14341;51.256;22.478;2023-05-16T15:00:29;8.30;;;5.80;;
26742;SDS011;14341;51.256;22.478;2023-05-16T15:03:35;9.38;;;5.97;;
26742;SDS011;14341;51.256;22.478;2023-05-16T15:06:55;12.45;;;6.20;;
26742;SDS011;14341;51.256;22.478;2023-05-16T15:09:59;9.45;;;5.82;;
26742;SDS011;14341;51.256;22.478;2023-05-16T15:13:02;9.68;;;5.70;;
26742;SDS011;14341;51.256;22.478;2023-05-16T15:16:05;9.35;;;6.07;;
26742;SDS011;14341;51.256;22.478;2023-05-16T15:19:10;8.85;;;5.47;;
26742;SDS011;14341;51.256;22.478;2023-05-16T15:22:14;6.68;;;5.97;;
26742;SDS011;14341;51.256;22.478;2023-05-16T15:25:17;6.10;;;5.45;;
26742;SDS011;14341;51.256;22.478;2023-05-16T15:28:21;9.35;;;6.10;;
26742;SDS011;14341;51.256;22.478;2023-05-16T15:31:24;10.25;;;5.70;;
26742;SDS011;14341;51.256;22.478;2023-05-16T15:34:29;11.20;;;5.90;;
26742;SDS011;14341;51.256;22.478;2023-05-16T15:37:32;8.38;;;6.00;;
26742;SDS011;14341;51.256;22.478;2023-05-16T15:40:36;7.28;;;5.55;;
26742;SDS011;14341;51.256;22.478;2023-05-16T15:43:39;9.38;;;6.03;;
26742;SDS011;14341;51.256;22.478;2023-05-16T15:46:43;13.10;;;6.00;;
26742;SDS011;14341;51.256;22.478;2023-05-16T15:49:48;7.75;;;5.55;;
26742;SDS011;14341;51.256;22.478;2023-05-16T15:52:51;12.80;;;6.07;;
26742;SDS011;14341;51.256;22.478;2023-05-16T15:55:54;9.52;;;6.15;;
26742;SDS011;14341;51.256;22.478;2023-05-16T15:58:58;8.98;;;5.97;;
26742;SDS011;14341;51.256;22.478;2023-05-16T16:02:01;10.07;;;6.00;;
26742;SDS011;14341;51.256;22.478;2023-05-16T16:05:07;12.05;;;5.78;;
26742;SDS011;14341;51.256;22.478;2023-05-16T16:08:11;9.43;;;5.90;;
26742;SDS011;14341;51.256;22.478;2023-05-16T16:11:14;12.43;;;6.00;;
26742;SDS011;14341;51.256;22.478;2023-05-16T16:14:17;8.20;;;5.63;;
26742;SDS011;14341;51.256;22.478;2023-05-16T16:17:21;10.25;;;5.80;;
26742;SDS011;14341;51.256;22.478;2023-05-16T16:20:25;72.40;;;64.72;;
26742;SDS011;14341;51.256;22.478;2023-05-16T16:26:33;8.57;;;5.78;;
26742;SDS011;14341;51.256;22.478;2023-05-16T16:29:36;10.88;;;6.72;;
26742;SDS011;14341;51.256;22.478;2023-05-16T16:32:40;9.27;;;6.82;;
26742;SDS011;14341;51.256;22.478;2023-05-16T16:35:44;11.43;;;5.32;;
26742;SDS011;14341;51.256;22.478;2023-05-16T16:38:48;10.10;;;5.85;;
26742;SDS011;14341;51.256;22.478;2023-05-16T16:41:51;40.10;;;31.90;;
26742;SDS011;14341;51.256;22.478;2023-05-16T16:44:55;37.45;;;27.15;;
26742;SDS011;14341;51.256;22.478;2023-05-16T16:47:58;14.90;;;8.82;;
26742;SDS011;14341;51.256;22.478;2023-05-16T16:51:03;9.73;;;8.07;;
26742;SDS011;14341;51.256;22.478;2023-05-16T16:54:06;12.05;;;8.25;;
26742;SDS011;14341;51.256;22.478;2023-05-16T16:57:10;10.45;;;7.68;;
26742;SDS011;14341;51.256;22.478;2023-05-16T17:00:13;10.77;;;7.70;;
26742;SDS011;14341;51.256;22.478;2023-05-16T17:03:17;19.50;;;8.82;;
26742;SDS011;14341;51.256;22.478;2023-05-16T17:06:23;12.93;;;7.82;;
26742;SDS011;14341;51.256;22.478;2023-05-16T17:09:28;8.77;;;7.88;;
26742;SDS011;14341;51.256;22.478;2023-05-16T17:15:35;8.73;;;7.93;;
26742;SDS011;14341;51.256;22.478;2023-05-16T17:18:39;10.77;;;8.98;;
26742;SDS011;14341;51.256;22.478;2023-05-16T17:21:44;10.32;;;8.93;;
26742;SDS011;14341;51.256;22.478;2023-05-16T17:24:48;14.50;;;8.75;;
26742;SDS011;14341;51.256;22.478;2023-05-16T17:27:51;15.35;;;8.10;;
26742;SDS011;14341;51.256;22.478;2023-05-16T17:30:54;8.82;;;7.55;;
26742;SDS011;14341;51.256;22.478;2023-05-16T17:33:58;15.63;;;7.75;;
26742;SDS011;14341;51.256;22.478;2023-05-16T17:37:03;19.25;;;15.38;;
26742;SDS011;14341;51.256;22.478;2023-05-16T17:40:07;10.00;;;8.63;;
26742;SDS011;14341;51.256;22.478;2023-05-16T17:43:17;9.10;;;7.57;;
26742;SDS011;14341;51.256;22.478;2023-05-16T17:46:20;9.13;;;8.23;;
26742;SDS011;14341;51.256;22.478;2023-05-16T17:49:25;11.52;;;9.27;;
26742;SDS011;14341;51.256;22.478;2023-05-16T17:52:31;10.38;;;9.05;;
26742;SDS011;14341;51.256;22.478;2023-05-16T17:55:35;15.00;;;8.98;;
26742;SDS011;14341;51.256;22.478;2023-05-16T17:58:39;16.17;;;9.70;;
26742;SDS011;14341;51.256;22.478;2023-05-16T18:01:43;15.60;;;10.48;;
26742;SDS011;14341;51.256;22.478;2023-05-16T18:04:47;13.30;;;9.38;;
26742;SDS011;14341;51.256;22.478;2023-05-16T18:07:53;30.45;;;16.88;;
26742;SDS011;14341;51.256;22.478;2023-05-16T18:10:58;14.98;;;9.60;;
26742;SDS011;14341;51.256;22.478;2023-05-16T18:14:02;16.80;;;11.20;;